createdAt,value
2022-12-23T00:29:26.012Z,992.818
2022-12-23T00:59:44.805Z,992.832
2022-12-23T01:30:03.622Z,993.329
2022-12-23T02:00:20.575Z,993.632
2022-12-23T02:30:38.121Z,994.1039999999999
2022-12-23T03:00:54.700Z,994.086
2022-12-23T03:31:11.298Z,994.3649
2022-12-23T04:01:28.405Z,994.682
2022-12-23T04:31:44.666Z,994.7339999999999
2022-12-23T05:02:01.703Z,994.975
2022-12-23T05:32:18.657Z,995.0778999999999
2022-12-23T06:02:38.132Z,995.237
2022-12-23T06:32:55.927Z,995.55
2022-12-23T07:03:15.047Z,995.5219999999999
2022-12-23T07:33:34.000Z,995.6419999999999
2022-12-23T08:03:52.570Z,995.7129
2022-12-23T08:34:09.719Z,995.805
2022-12-23T09:04:28.732Z,995.715
2022-12-23T09:34:48.104Z,995.867
2022-12-23T10:05:06.754Z,995.8389
2022-12-23T10:35:22.752Z,995.576
2022-12-23T11:05:39.509Z,994.7379
2022-12-23T11:35:58.208Z,994.1999000000001
2022-12-23T12:06:15.764Z,993.5269999999999
2022-12-23T12:36:33.270Z,993.03
2022-12-23T13:06:50.869Z,992.2728999999999
2022-12-23T13:37:13.071Z,991.8889999999999
2022-12-23T14:07:30.630Z,991.4960000000001
2022-12-23T14:37:49.165Z,991.0889999999999
2022-12-23T15:08:05.683Z,991.066
2022-12-23T15:38:24.477Z,991.36
2022-12-23T16:08:40.660Z,991.0160000000001
2022-12-23T16:38:58.900Z,991.2339
2022-12-23T17:09:16.895Z,991.42
2022-12-23T17:39:34.978Z,991.828
2022-12-23T18:09:54.146Z,991.995
2022-12-23T18:40:12.046Z,992.43
2022-12-23T19:10:30.361Z,992.7429
2022-12-23T19:40:48.108Z,993.1849000000001
2022-12-23T20:11:06.790Z,993.53
2022-12-23T20:41:23.853Z,994.205
2022-12-23T21:11:41.930Z,994.5189
2022-12-23T21:42:00.718Z,994.812
2022-12-23T22:12:18.167Z,995.0049
2022-12-23T22:42:38.123Z,995.4910000000001
2022-12-23T23:12:55.619Z,996.0299
2022-12-23T23:43:13.278Z,996.6029
